Time;durP1;ratioP1;P1;durP2;ratioP2;P2;SDS_P1;SDS_P2;PMS_P1;PMS_P2;Temp;Humidity;BMP_temperature;BMP_pressure;BME280_temperature;BME280_humidity;BME280_pressure;Samples;Min_cycle;Max_cycle;Signal;HPM_P1;HPM_P2
2021/03/04 00:00:05;;;;;;;21.42;10.15;;;9.80;82.90;;;;;;5032715;28;20728;-76
2021/03/04 00:02:31;;;;;;;22.33;11.05;;;9.70;83.00;;;;;;5046690;28;20478;-75
2021/03/04 00:04:56;;;;;;;20.38;10.27;;;9.70;83.40;;;;;;5036455;28;20040;-76
2021/03/04 00:07:22;;;;;;;23.83;10.65;;;9.70;83.50;;;;;;5033963;28;20041;-76
2021/03/04 00:09:47;;;;;;;21.27;11.77;;;9.60;83.80;;;;;;5015322;28;20041;-76
2021/03/04 00:12:13;;;;;;;21.83;11.15;;;9.60;83.80;;;;;;5030352;28;20411;-75
2021/03/04 00:14:39;;;;;;;19.25;10.93;;;9.60;84.30;;;;;;5036242;28;20045;-75
2021/03/04 00:17:05;;;;;;;22.95;10.90;;;9.60;84.10;;;;;;5041102;28;20036;-76
2021/03/04 00:19:31;;;;;;;16.40;9.30;;;9.50;84.00;;;;;;5038744;28;20044;-76
2021/03/04 00:21:56;;;;;;;24.92;10.98;;;9.50;84.20;;;;;;5038998;28;20040;-77
2021/03/04 00:24:22;;;;;;;22.48;11.02;;;9.40;84.20;;;;;;5041182;28;20033;-76
2021/03/04 00:26:47;;;;;;;18.45;10.32;;;9.50;85.30;;;;;;5031309;28;20072;-75
2021/03/04 00:29:13;;;;;;;19.88;10.73;;;9.50;85.40;;;;;;5031718;28;20039;-75
2021/03/04 00:31:39;;;;;;;18.40;10.43;;;9.40;85.80;;;;;;5035208;28;20064;-75
2021/03/04 00:34:05;;;;;;;19.80;11.07;;;9.40;86.10;;;;;;5034292;28;20526;-78
2021/03/04 00:36:31;;;;;;;21.08;10.68;;;9.40;86.30;;;;;;5040069;28;20526;-75
2021/03/04 00:38:59;;;;;;;22.23;11.40;;;9.30;86.40;;;;;;5037942;28;20033;-75
2021/03/04 00:41:24;;;;;;;21.23;10.05;;;9.30;86.30;;;;;;5052834;28;20683;-76
2021/03/04 00:43:50;;;;;;;18.35;10.23;;;9.20;87.20;;;;;;5025253;28;20075;-75
2021/03/04 00:46:16;;;;;;;28.83;9.93;;;;;;;;;;5041447;28;20063;-76
2021/03/04 00:48:42;;;;;;;20.27;10.57;;;;;;;;;;5025887;28;20042;-75
2021/03/04 00:51:08;;;;;;;21.92;10.50;;;;;;;;;;5035120;28;20032;-75
2021/03/04 00:53:34;;;;;;;18.13;10.68;;;;;;;;;;5029928;28;20559;-76
2021/03/04 00:56:00;;;;;;;19.08;9.90;;;;;;;;;;5029834;28;20064;-76
2021/03/04 00:58:26;;;;;;;26.45;10.07;;;;;;;;;;5051433;28;20132;-75
2021/03/04 01:00:53;;;;;;;21.17;9.57;;;9.20;88.00;;;;;;5033461;28;20044;-78
2021/03/04 01:03:18;;;;;;;18.50;10.32;;;9.10;88.60;;;;;;5034469;28;20098;-76
2021/03/04 01:05:44;;;;;;;20.65;11.32;;;9.10;88.40;;;;;;5038469;28;20490;-76
2021/03/04 01:08:10;;;;;;;19.23;10.57;;;9.00;88.90;;;;;;5029139;28;20522;-75
2021/03/04 01:10:41;;;;;;;18.50;10.55;;;9.00;89.40;;;;;;5036128;28;20029;-78
2021/03/04 01:13:07;;;;;;;18.27;10.48;;;9.00;89.80;;;;;;5040090;28;20091;-76
2021/03/04 01:15:34;;;;;;;17.58;10.05;;;8.90;90.00;;;;;;5028807;28;21371;-75
2021/03/04 01:18:02;;;;;;;20.35;11.25;;;8.90;90.10;;;;;;5036556;28;20041;-75
2021/03/04 01:20:28;;;;;;;20.77;11.57;;;8.90;90.00;;;;;;5030435;28;20037;-75
2021/03/04 01:22:54;;;;;;;17.33;11.02;;;8.90;90.20;;;;;;5031992;28;20403;-75
2021/03/04 01:25:21;;;;;;;23.30;10.55;;;8.80;90.40;;;;;;5026783;28;20036;-75
2021/03/04 01:27:52;;;;;;;21.85;10.95;;;8.80;90.60;;;;;;5033562;28;20583;-75
2021/03/04 01:30:23;;;;;;;22.23;11.15;;;8.80;90.60;;;;;;5013953;28;20041;-75
2021/03/04 01:32:49;;;;;;;20.27;10.00;;;8.80;90.70;;;;;;5028153;28;20658;-76
2021/03/04 01:35:16;;;;;;;20.10;11.30;;;8.70;90.70;;;;;;5031282;28;20383;-76
2021/03/04 01:37:41;;;;;;;20.38;11.00;;;8.80;90.70;;;;;;5039543;28;20041;-74
2021/03/04 01:40:09;;;;;;;21.50;11.23;;;8.80;90.70;;;;;;5045926;28;20040;-76
2021/03/04 01:42:35;;;;;;;21.67;10.43;;;8.80;90.70;;;;;;5033918;28;20033;-75
2021/03/04 01:45:02;;;;;;;21.70;9.98;;;8.80;90.90;;;;;;5032552;28;20045;-76
2021/03/04 01:47:28;;;;;;;23.33;11.95;;;8.80;91.00;;;;;;5042300;28;20037;-75
2021/03/04 01:49:54;;;;;;;19.95;11.32;;;8.80;90.90;;;;;;5040948;28;20186;-77
2021/03/04 01:52:20;;;;;;;18.80;11.23;;;8.70;91.10;;;;;;5037731;28;20049;-76
2021/03/04 01:54:46;;;;;;;20.45;11.07;;;9.40;91.30;;;;;;5042786;28;20033;-77
2021/03/04 01:57:13;;;;;;;24.55;12.02;;;8.60;91.30;;;;;;5035467;28;20859;-76
2021/03/04 01:59:40;;;;;;;21.60;10.98;;;8.60;91.50;;;;;;5026577;28;20174;-76
2021/03/04 02:02:06;;;;;;;22.92;11.32;;;8.70;91.40;;;;;;5027302;28;20479;-76
2021/03/04 02:04:32;;;;;;;22.08;10.77;;;8.60;91.30;;;;;;5038175;28;20536;-77
2021/03/04 02:07:45;;;;;;;22.25;10.95;;;8.70;91.00;;;;;;5021107;28;20041;-75
2021/03/04 02:10:20;;;;;;;19.70;11.27;;;8.60;91.10;;;;;;4994016;28;20044;-75
2021/03/04 02:13:05;;;;;;;25.05;12.27;;;8.60;91.00;;;;;;5032852;28;20465;-75
2021/03/04 02:15:40;;;;;;;20.58;11.43;;;8.60;91.20;;;;;;5049935;28;20041;-76
2021/03/04 02:18:11;;;;;;;21.30;10.40;;;8.60;91.20;;;;;;5033918;28;20025;-75
2021/03/04 02:21:03;;;;;;;22.67;11.38;;;8.50;91.10;;;;;;5029811;28;20037;-77
2021/03/04 02:24:07;;;;;;;23.95;11.48;;;8.50;91.30;;;;;;5048430;28;20034;-76
2021/03/04 02:26:52;;;;;;;23.00;10.90;;;8.50;91.40;;;;;;5032352;28;20044;-75
2021/03/04 02:29:21;;;;;;;19.00;10.40;;;8.50;91.20;;;;;;5032722;28;20514;-75
2021/03/04 02:31:47;;;;;;;20.40;11.00;;;;;;;;;;5026404;28;20021;-75
2021/03/04 02:34:13;;;;;;;25.88;11.65;;;8.50;91.30;;;;;;5047729;28;20037;-76
2021/03/04 02:36:42;;;;;;;25.38;11.38;;;8.50;91.20;;;;;;5034618;28;20040;-76
2021/03/04 02:39:09;;;;;;;23.17;11.60;;;8.50;91.10;;;;;;5033082;28;20482;-76
2021/03/04 02:41:36;;;;;;;22.08;11.10;;;8.40;91.20;;;;;;5038086;28;20119;-76
2021/03/04 02:44:05;;;;;;;22.27;10.40;;;8.50;91.30;;;;;;5032680;28;20064;-76
2021/03/04 02:46:33;;;;;;;19.15;10.60;;;9.60;91.50;;;;;;5035907;28;20088;-76
2021/03/04 02:49:00;;;;;;;22.40;11.23;;;9.20;91.30;;;;;;5039374;28;20089;-74
2021/03/04 02:51:27;;;;;;;23.08;11.32;;;8.60;91.20;;;;;;5035411;28;20043;-76
2021/03/04 02:53:54;;;;;;;22.67;11.32;;;8.50;91.20;;;;;;5037947;28;20040;-76
2021/03/04 02:56:22;;;;;;;24.33;12.68;;;8.50;91.40;;;;;;5037754;28;20415;-75
2021/03/04 02:58:49;;;;;;;23.70;11.13;;;8.50;91.60;;;;;;5042350;28;20052;-75
2021/03/04 03:01:15;;;;;;;23.00;11.07;;;8.50;91.50;;;;;;5043719;28;20041;-75
2021/03/04 03:03:41;;;;;;;22.77;11.07;;;8.50;91.70;;;;;;5029752;28;20487;-77
2021/03/04 03:06:08;;;;;;;22.02;11.00;;;8.40;91.80;;;;;;5036186;28;20033;-76
2021/03/04 03:08:36;;;;;;;24.92;11.88;;;8.40;91.90;;;;;;5015141;28;20049;-76
2021/03/04 03:11:02;;;;;;;22.85;11.63;;;8.40;91.90;;;;;;5047847;28;20452;-76
2021/03/04 03:13:28;;;;;;;21.73;11.88;;;8.40;92.00;;;;;;5043794;28;20541;-76
2021/03/04 03:15:54;;;;;;;20.65;11.02;;;8.40;91.90;;;;;;5034025;28;20045;-76
2021/03/04 03:18:20;;;;;;;20.63;11.38;;;8.40;92.10;;;;;;5032253;28;20102;-76
2021/03/04 03:20:46;;;;;;;22.80;10.57;;;;;;;;;;5037573;28;20049;-76
2021/03/04 03:23:12;;;;;;;22.80;10.90;;;8.30;92.00;;;;;;5032234;28;20045;-77
2021/03/04 03:25:37;;;;;;;18.80;10.65;;;7.30;91.90;;;;;;5031408;28;20041;-77
2021/03/04 03:28:04;;;;;;;22.25;10.75;;;8.30;92.00;;;;;;5038642;28;20460;-75
2021/03/04 03:30:30;;;;;;;20.13;10.82;;;8.30;92.10;;;;;;5045794;28;20068;-77
2021/03/04 03:33:05;;;;;;;18.77;11.27;;;8.30;92.10;;;;;;5038451;28;20136;-78
2021/03/04 03:35:31;;;;;;;21.80;11.48;;;8.30;92.00;;;;;;5046424;28;20032;-78
2021/03/04 03:37:58;;;;;;;22.05;10.45;;;8.20;92.00;;;;;;5046166;28;20069;-75
2021/03/04 03:40:26;;;;;;;17.63;10.38;;;8.20;92.20;;;;;;5041931;28;20495;-75
2021/03/04 03:42:54;;;;;;;20.85;10.75;;;8.20;92.30;;;;;;5045473;28;20598;-76
2021/03/04 03:45:29;;;;;;;20.55;11.32;;;8.30;92.40;;;;;;5045519;28;20076;-77
2021/03/04 03:47:56;;;;;;;23.15;10.25;;;8.30;92.50;;;;;;5040404;28;20140;-76
2021/03/04 03:50:24;;;;;;;21.23;11.05;;;8.20;92.30;;;;;;5042242;28;20145;-76
2021/03/04 03:52:51;;;;;;;24.83;11.25;;;8.30;92.10;;;;;;5042015;28;20055;-76
2021/03/04 03:55:17;;;;;;;20.45;10.98;;;8.30;92.10;;;;;;5041377;28;20033;-76
2021/03/04 03:57:45;;;;;;;22.63;10.60;;;8.20;92.20;;;;;;5041731;28;20045;-75
2021/03/04 04:00:12;;;;;;;19.73;10.82;;;8.20;92.50;;;;;;5040609;28;20037;-77
2021/03/04 04:02:38;;;;;;;24.88;11.82;;;8.20;92.60;;;;;;5044493;28;20029;-74
2021/03/04 04:05:06;;;;;;;24.02;11.63;;;8.20;92.50;;;;;;5045263;28;20120;-78
2021/03/04 04:07:32;;;;;;;25.25;10.82;;;8.20;92.60;;;;;;5050638;28;20107;-75
2021/03/04 04:10:00;;;;;;;21.50;11.02;;;8.20;92.80;;;;;;5042057;28;20064;-76
2021/03/04 04:12:26;;;;;;;23.45;11.35;;;8.20;92.50;;;;;;5043504;28;20043;-75
2021/03/04 04:14:52;;;;;;;24.65;12.18;;;8.20;92.70;;;;;;5038744;28;20041;-77
2021/03/04 04:17:21;;;;;;;26.33;11.73;;;8.10;92.60;;;;;;5037833;28;20033;-77
2021/03/04 04:19:49;;;;;;;26.17;11.43;;;8.10;92.70;;;;;;5015093;28;20041;-76
2021/03/04 04:22:16;;;;;;;23.85;11.70;;;8.00;93.00;;;;;;5014407;28;20041;-76
2021/03/04 04:24:42;;;;;;;24.10;11.70;;;;;;;;;;5037928;28;20441;-76
2021/03/04 04:27:11;;;;;;;23.23;11.52;;;8.10;93.00;;;;;;5055485;28;21319;-76
2021/03/04 04:29:36;;;;;;;20.50;10.43;;;8.00;93.10;;;;;;5035706;28;20111;-76
2021/03/04 04:32:02;;;;;;;22.98;10.68;;;8.00;92.90;;;;;;5036088;28;20447;-75
2021/03/04 04:34:27;;;;;;;21.42;10.85;;;8.00;93.20;;;;;;5028468;28;20072;-76
2021/03/04 04:36:53;;;;;;;20.27;10.85;;;8.00;93.10;;;;;;5041560;28;20033;-75
2021/03/04 04:39:19;;;;;;;21.67;10.80;;;8.00;93.20;;;;;;5013889;28;20514;-76
2021/03/04 04:41:44;;;;;;;20.85;10.93;;;8.00;93.10;;;;;;5032136;28;20602;-76
2021/03/04 04:44:10;;;;;;;21.73;10.63;;;7.90;93.10;;;;;;5040945;28;20048;-76
2021/03/04 04:46:36;;;;;;;22.42;11.10;;;7.90;93.40;;;;;;5044940;28;20033;-76
2021/03/04 04:49:01;;;;;;;22.35;11.07;;;7.80;93.40;;;;;;5035039;28;20107;-76
2021/03/04 04:51:28;;;;;;;21.15;10.85;;;7.80;93.50;;;;;;5035574;28;20142;-76
2021/03/04 04:53:54;;;;;;;21.08;10.90;;;7.80;93.60;;;;;;5025248;28;20396;-76
2021/03/04 04:56:20;;;;;;;23.02;11.15;;;;;;;;;;5051538;28;20055;-75
2021/03/04 04:58:46;;;;;;;23.35;11.85;;;7.80;93.50;;;;;;5042051;28;20598;-78
2021/03/04 05:01:11;;;;;;;24.52;11.68;;;7.80;93.60;;;;;;5035088;28;20055;-76
2021/03/04 05:03:37;;;;;;;22.35;11.88;;;7.80;93.60;;;;;;5043636;28;20493;-77
2021/03/04 05:06:03;;;;;;;25.95;11.95;;;7.80;93.40;;;;;;5038648;28;20043;-76
2021/03/04 05:08:28;;;;;;;25.55;11.20;;;7.80;93.60;;;;;;5027778;28;20095;-76
2021/03/04 05:10:54;;;;;;;19.95;10.10;;;7.80;93.80;;;;;;5023491;28;20037;-77
2021/03/04 05:13:19;;;;;;;23.25;11.00;;;7.90;93.20;;;;;;5041144;28;20048;-76
2021/03/04 05:15:45;;;;;;;21.52;11.45;;;7.80;93.40;;;;;;5035840;28;20528;-77
2021/03/04 05:18:11;;;;;;;23.60;10.75;;;8.00;93.30;;;;;;5041021;28;20466;-75
2021/03/04 05:20:36;;;;;;;22.92;10.70;;;7.80;93.30;;;;;;5037956;28;20120;-76
2021/03/04 05:23:02;;;;;;;20.52;10.68;;;7.80;93.50;;;;;;5044337;28;20068;-77
2021/03/04 05:25:28;;;;;;;21.52;11.50;;;;;;;;;;5046179;28;20025;-79
2021/03/04 05:27:54;;;;;;;23.70;10.95;;;7.70;93.70;;;;;;5041024;28;20041;-76
2021/03/04 05:30:20;;;;;;;22.45;11.70;;;7.70;94.00;;;;;;5032978;28;20525;-76
2021/03/04 05:32:46;;;;;;;19.17;11.00;;;7.70;93.80;;;;;;5033472;28;20048;-76
2021/03/04 05:35:12;;;;;;;21.92;10.68;;;7.70;94.10;;;;;;5036943;28;20044;-77
2021/03/04 05:37:38;;;;;;;21.05;10.63;;;7.80;93.70;;;;;;5029182;28;20473;-75
2021/03/04 05:40:04;;;;;;;21.13;10.82;;;7.80;93.60;;;;;;5040922;28;20048;-75
2021/03/04 05:42:31;;;;;;;22.42;11.25;;;7.90;93.40;;;;;;5043627;28;20051;-75
2021/03/04 05:44:58;;;;;;;21.00;10.60;;;7.90;93.30;;;;;;5043930;28;20116;-75
2021/03/04 05:47:24;;;;;;;21.48;11.23;;;7.90;93.40;;;;;;5045865;28;20114;-75
2021/03/04 05:50:12;;;;;;;20.40;10.73;;;7.80;93.50;;;;;;5024234;28;20564;-77
2021/03/04 05:52:39;;;;;;;19.83;10.38;;;7.80;93.60;;;;;;5047058;28;20025;-76
2021/03/04 05:55:06;;;;;;;22.15;11.15;;;7.80;93.80;;;;;;5044265;28;20522;-75
2021/03/04 05:57:33;;;;;;;27.27;11.98;;;7.80;93.80;;;;;;5039009;28;20149;-77
2021/03/04 05:59:59;;;;;;;25.38;11.80;;;7.80;93.90;;;;;;5033531;28;20044;-77
2021/03/04 06:02:25;;;;;;;21.75;11.32;;;7.80;93.80;;;;;;5038411;28;20072;-77
2021/03/04 06:04:51;;;;;;;23.80;11.63;;;7.80;93.90;;;;;;5039428;28;20550;-76
2021/03/04 06:07:17;;;;;;;23.17;10.63;;;7.80;93.90;;;;;;5021715;28;20039;-76
2021/03/04 06:09:43;;;;;;;25.75;12.55;;;7.80;93.80;;;;;;5043743;28;20064;-76
2021/03/04 06:12:10;;;;;;;24.42;11.82;;;7.80;93.70;;;;;;5017182;28;20124;-76
2021/03/04 06:14:37;;;;;;;20.17;11.43;;;7.80;93.90;;;;;;5036328;28;20037;-75
2021/03/04 06:17:15;;;;;;;19.67;11.18;;;7.80;93.50;;;;;;5047767;28;20039;-76
2021/03/04 06:19:41;;;;;;;24.85;10.75;;;7.70;93.50;;;;;;5045864;28;20497;-78
2021/03/04 06:22:06;;;;;;;19.20;10.55;;;7.70;93.80;;;;;;5050716;28;20026;-75
2021/03/04 06:24:32;;;;;;;24.30;11.85;;;7.70;93.90;;;;;;5039638;28;20126;-76
2021/03/04 06:26:58;;;;;;;22.90;12.13;;;7.60;93.80;;;;;;5049367;28;20025;-75
2021/03/04 06:29:26;;;;;;;26.95;11.48;;;7.60;94.00;;;;;;5046990;28;20510;-75
2021/03/04 06:31:59;;;;;;;28.02;12.15;;;7.60;94.30;;;;;;5037936;28;20040;-75
2021/03/04 06:34:25;;;;;;;25.75;12.18;;;7.60;94.30;;;;;;5036938;28;20040;-74
2021/03/04 06:37:00;;;;;;;24.50;12.45;;;7.60;94.10;;;;;;5043808;28;20025;-75
2021/03/04 06:39:38;;;;;;;25.60;13.30;;;7.50;94.30;;;;;;5039165;28;20440;-76
2021/03/04 06:42:05;;;;;;;24.33;11.18;;;7.50;94.50;;;;;;5040630;28;20028;-76
2021/03/04 06:44:48;;;;;;;24.08;11.80;;;7.50;94.40;;;;;;5039296;28;20052;-76
2021/03/04 06:47:40;;;;;;;30.48;11.35;;;7.40;94.60;;;;;;5042102;28;22175;-76
2021/03/04 06:50:06;;;;;;;25.55;11.60;;;7.50;94.80;;;;;;5039329;28;20046;-77
2021/03/04 06:52:32;;;;;;;24.05;12.35;;;7.50;94.60;;;;;;5042563;28;20037;-78
2021/03/04 06:55:10;;;;;;;24.50;12.05;;;7.60;94.50;;;;;;5038391;28;20490;-77
2021/03/04 06:57:36;;;;;;;33.92;13.65;;;7.60;94.80;;;;;;5039527;28;20033;-76
2021/03/04 07:00:07;;;;;;;26.25;12.43;;;7.60;94.90;;;;;;5035980;28;20044;-79
2021/03/04 07:02:33;;;;;;;29.40;11.88;;;7.70;94.20;;;;;;5035937;28;20064;-78
2021/03/04 07:05:01;;;;;;;27.45;12.10;;;7.80;93.90;;;;;;5034740;28;20570;-76
2021/03/04 07:07:27;;;;;;;35.33;13.35;;;7.80;94.10;;;;;;5036193;28;20071;-78
2021/03/04 07:09:55;;;;;;;29.50;12.63;;;7.90;93.90;;;;;;5036678;28;20539;-77
2021/03/04 07:12:22;;;;;;;34.40;13.38;;;8.00;93.90;;;;;;5029538;28;20072;-76
2021/03/04 07:14:49;;;;;;;187.65;22.90;;;7.90;94.10;;;;;;5036717;28;20502;-77
2021/03/04 07:17:20;;;;;;;44.92;14.60;;;8.10;93.50;;;;;;5037409;28;20155;-76
2021/03/04 07:19:49;;;;;;;31.50;14.27;;;8.10;93.90;;;;;;5049892;28;20075;-76
2021/03/04 07:22:18;;;;;;;37.05;12.98;;;8.10;93.50;;;;;;5036880;28;20075;-77
2021/03/04 07:24:45;;;;;;;36.42;12.57;;;8.20;93.20;;;;;;5041879;28;20048;-77
2021/03/04 07:27:13;;;;;;;24.20;12.70;;;8.10;93.50;;;;;;5032614;28;20040;-79
2021/03/04 07:29:40;;;;;;;30.85;12.75;;;8.10;93.50;;;;;;5039127;28;20041;-77
2021/03/04 07:32:07;;;;;;;25.70;12.23;;;8.20;93.60;;;;;;5037395;28;20029;-77
2021/03/04 07:34:35;;;;;;;26.42;12.10;;;8.10;93.20;;;;;;5037484;28;20037;-78
2021/03/04 07:37:02;;;;;;;29.35;13.32;;;8.10;93.80;;;;;;5036131;28;20449;-77
2021/03/04 07:39:32;;;;;;;32.88;13.57;;;8.20;93.80;;;;;;5039454;28;21151;-78
2021/03/04 07:41:58;;;;;;;30.42;14.05;;;8.20;94.00;;;;;;5040737;28;20029;-78
2021/03/04 07:44:31;;;;;;;32.17;12.25;;;8.30;93.90;;;;;;5047862;28;20491;-79
2021/03/04 07:47:02;;;;;;;30.38;12.80;;;8.50;93.40;;;;;;5043152;28;20120;-77
2021/03/04 07:49:39;;;;;;;27.60;12.05;;;8.50;93.20;;;;;;5040833;28;20589;-76
2021/03/04 07:52:17;;;;;;;35.75;12.68;;;8.60;93.00;;;;;;5039634;28;20468;-75
2021/03/04 07:54:47;;;;;;;26.50;11.98;;;8.60;93.50;;;;;;5046548;28;20025;-76
2021/03/04 07:57:15;;;;;;;30.40;12.07;;;8.60;93.40;;;;;;5051691;28;20063;-77
2021/03/04 07:59:52;;;;;;;29.33;12.52;;;8.80;92.20;;;;;;5052581;28;20045;-78
2021/03/04 08:02:38;;;;;;;32.88;12.80;;;8.70;92.40;;;;;;5041883;28;20132;-79
2021/03/04 08:05:09;;;;;;;31.08;12.98;;;8.70;92.40;;;;;;5039300;28;20043;-77
2021/03/04 08:07:34;;;;;;;25.67;12.07;;;8.80;92.50;;;;;;5032755;28;20072;-76
2021/03/04 08:10:09;;;;;;;53.72;13.63;;;8.80;92.60;;;;;;5040398;28;20052;-78
2021/03/04 08:13:00;;;;;;;23.25;12.50;;;8.80;92.40;;;;;;5037564;28;20041;-78
2021/03/04 08:15:34;;;;;;;33.78;13.15;;;8.90;92.10;;;;;;5039067;28;20547;-78
2021/03/04 08:18:00;;;;;;;26.63;12.10;;;9.20;91.60;;;;;;5036456;28;20258;-79
2021/03/04 08:20:26;;;;;;;30.40;12.82;;;9.10;91.70;;;;;;5045092;28;20128;-78
2021/03/04 08:22:55;;;;;;;24.77;12.68;;;9.20;91.30;;;;;;5045160;28;20111;-76
2021/03/04 08:25:23;;;;;;;24.08;12.80;;;9.30;91.00;;;;;;5036834;28;20490;-77
2021/03/04 08:27:51;;;;;;;29.35;13.15;;;9.30;91.20;;;;;;5037353;28;20272;-79
2021/03/04 08:30:34;;;;;;;25.15;12.45;;;9.30;91.30;;;;;;5024720;28;20448;-77
2021/03/04 08:33:07;;;;;;;28.60;12.80;;;9.40;91.20;;;;;;5033268;28;20036;-80
2021/03/04 08:35:37;;;;;;;26.00;12.77;;;9.50;90.90;;;;;;5035455;28;20037;-76
2021/03/04 08:38:07;;;;;;;;;;;9.60;90.70;;;;;;5056709;28;20608;-77
2021/03/04 08:40:51;;;;;;;21.95;11.15;;;9.80;89.00;;;;;;5041564;28;19920;-78
2021/03/04 08:43:20;;;;;;;20.25;10.52;;;9.90;89.70;;;;;;5038097;28;20617;-77
2021/03/04 08:45:50;;;;;;;21.63;11.23;;;9.90;89.60;;;;;;5038417;28;21376;-77
2021/03/04 08:48:16;;;;;;;21.00;10.88;;;10.20;87.90;;;;;;5041016;28;20048;-79
2021/03/04 08:50:47;;;;;;;24.38;11.93;;;10.30;88.00;;;;;;5038151;28;20072;-76
2021/03/04 08:53:25;;;;;;;21.55;11.35;;;10.30;88.40;;;;;;5037517;28;20037;-78
2021/03/04 08:55:53;;;;;;;24.08;10.68;;;10.40;87.70;;;;;;5045550;28;20110;-78
2021/03/04 08:58:20;;;;;;;24.05;11.45;;;10.50;87.20;;;;;;5040015;28;20798;-79
2021/03/04 09:00:56;;;;;;;20.75;11.00;;;10.60;85.70;;;;;;5040762;28;20456;-76
2021/03/04 09:03:23;;;;;;;22.55;10.98;;;10.60;86.30;;;;;;5050821;28;20028;-78
2021/03/04 09:05:50;;;;;;;21.50;10.88;;;10.80;85.80;;;;;;5036698;28;20033;-80
2021/03/04 09:08:16;;;;;;;25.98;10.98;;;10.90;84.90;;;;;;5040589;28;21364;-78
2021/03/04 09:10:50;;;;;;;23.35;11.05;;;11.00;84.10;;;;;;5038315;28;20048;-82
2021/03/04 09:13:25;;;;;;;24.88;11.13;;;11.20;84.50;;;;;;5040689;28;20071;-80
2021/03/04 09:15:58;;;;;;;22.02;10.45;;;11.50;81.80;;;;;;5021729;28;20425;-81
2021/03/04 09:18:25;;;;;;;18.95;9.40;;;11.50;80.90;;;;;;5036767;28;20028;-80
2021/03/04 09:20:52;;;;;;;19.10;10.60;;;11.50;80.90;;;;;;5040471;28;20076;-81
2021/03/04 09:23:19;;;;;;;25.50;9.75;;;11.60;80.50;;;;;;5027707;28;20057;-80
2021/03/04 09:25:46;;;;;;;24.77;10.55;;;11.70;80.00;;;;;;5036742;28;20141;-83
2021/03/04 09:28:14;;;;;;;22.67;10.40;;;11.80;80.40;;;;;;5036682;28;20514;-80
2021/03/04 09:30:40;;;;;;;20.45;10.45;;;11.90;79.60;;;;;;5048051;28;20163;-80
2021/03/04 09:33:24;;;;;;;23.73;10.35;;;12.00;78.70;;;;;;5039965;28;20071;-80
2021/03/04 09:35:53;;;;;;;21.55;10.30;;;12.30;78.20;;;;;;5043695;28;20502;-81
2021/03/04 09:38:19;;;;;;;18.15;10.50;;;12.60;76.10;;;;;;5041700;28;20024;-81
2021/03/04 09:40:45;;;;;;;25.65;12.00;;;13.20;74.30;;;;;;5038530;28;22673;-80
2021/03/04 09:43:15;;;;;;;22.65;10.00;;;13.50;71.90;;;;;;5040929;28;20799;-79
2021/03/04 09:45:50;;;;;;;24.08;10.65;;;13.70;70.90;;;;;;5039018;28;20086;-80
2021/03/04 09:48:17;;;;;;;18.77;10.52;;;13.70;70.70;;;;;;5036143;28;20033;-82
2021/03/04 09:50:54;;;;;;;20.95;10.82;;;13.40;70.60;;;;;;5027356;28;20055;-81
2021/03/04 09:53:20;;;;;;;25.08;11.40;;;13.10;72.20;;;;;;5041863;28;20057;-79
2021/03/04 09:55:46;;;;;;;22.65;10.60;;;12.80;74.70;;;;;;5041748;28;20095;-82
2021/03/04 09:58:14;;;;;;;20.73;10.18;;;12.70;75.20;;;;;;5020193;28;20048;-80
2021/03/04 10:00:40;;;;;;;20.60;11.52;;;12.50;74.50;;;;;;5039040;28;20048;-78
2021/03/04 10:03:08;;;;;;;23.23;10.75;;;12.90;75.10;;;;;;5018527;28;20053;-78
2021/03/04 10:05:34;;;;;;;24.27;11.57;;;12.50;75.90;;;;;;5039144;28;20033;-81
2021/03/04 10:08:08;;;;;;;23.27;11.40;;;12.30;76.60;;;;;;5019677;28;20139;-79
2021/03/04 10:10:34;;;;;;;21.50;11.23;;;12.20;77.70;;;;;;5045064;28;20028;-79
2021/03/04 10:13:00;;;;;;;24.33;10.93;;;12.10;78.10;;;;;;5045405;28;20498;-79
2021/03/04 10:15:40;;;;;;;19.40;11.48;;;12.10;78.60;;;;;;5031162;28;20125;-82
2021/03/04 10:18:13;;;;;;;24.65;11.23;;;12.00;79.00;;;;;;5043390;28;20045;-81
2021/03/04 10:20:44;;;;;;;19.00;10.95;;;11.90;80.00;;;;;;5040318;28;20033;-80
2021/03/04 10:23:10;;;;;;;21.52;11.77;;;11.90;80.40;;;;;;5044267;28;20093;-80
2021/03/04 10:25:36;;;;;;;26.38;12.38;;;12.00;80.60;;;;;;5038240;28;20087;-77
2021/03/04 10:28:03;;;;;;;22.02;10.57;;;11.80;81.30;;;;;;5042656;28;20056;-80
2021/03/04 10:30:30;;;;;;;23.35;10.80;;;11.70;81.30;;;;;;5039650;28;20046;-79
2021/03/04 10:32:57;;;;;;;21.38;11.35;;;11.70;81.70;;;;;;5042185;28;20025;-78
2021/03/04 10:35:24;;;;;;;22.30;11.65;;;11.80;81.60;;;;;;5041727;28;20037;-79
2021/03/04 10:37:51;;;;;;;22.33;12.23;;;11.80;81.60;;;;;;5039683;28;20041;-78
2021/03/04 10:40:18;;;;;;;24.77;12.10;;;11.80;81.50;;;;;;5026589;28;20133;-79
2021/03/04 10:42:44;;;;;;;29.95;12.48;;;11.70;82.60;;;;;;5041202;28;20036;-81
2021/03/04 10:45:12;;;;;;;21.23;12.20;;;14.30;84.60;;;;;;5039512;28;20063;-80
2021/03/04 10:47:39;;;;;;;27.63;12.35;;;11.60;83.20;;;;;;5046567;28;20182;-81
2021/03/04 10:50:07;;;;;;;26.75;12.38;;;12.20;84.10;;;;;;5038028;28;20406;-79
2021/03/04 10:52:35;;;;;;;25.30;11.77;;;11.50;84.70;;;;;;5034126;28;20041;-78
2021/03/04 10:55:02;;;;;;;23.10;11.63;;;11.50;85.90;;;;;;5047349;28;20037;-79
2021/03/04 10:57:27;;;;;;;21.23;11.65;;;11.50;86.80;;;;;;5024258;28;20036;-78
2021/03/04 10:59:53;;;;;;;22.65;11.85;;;11.40;87.80;;;;;;5031200;28;20446;-79
2021/03/04 11:02:19;;;;;;;22.63;12.18;;;11.40;87.90;;;;;;5043948;28;20048;-79
2021/03/04 11:04:44;;;;;;;25.67;12.40;;;11.30;90.00;;;;;;5042210;28;20037;-75
2021/03/04 11:07:10;;;;;;;22.30;11.50;;;11.10;91.10;;;;;;5047029;28;20032;-77
2021/03/04 11:09:36;;;;;;;26.88;12.88;;;11.00;91.80;;;;;;5046804;28;20045;-80
2021/03/04 11:12:02;;;;;;;30.33;12.82;;;10.90;93.60;;;;;;5030594;28;20483;-80
2021/03/04 11:14:28;;;;;;;21.92;12.68;;;10.80;94.20;;;;;;5055130;28;20049;-77
2021/03/04 11:16:54;;;;;;;27.13;12.88;;;10.70;95.20;;;;;;5033959;28;20037;-77
2021/03/04 11:19:19;;;;;;;25.98;12.80;;;10.60;95.80;;;;;;5040021;28;20067;-78
2021/03/04 11:21:46;;;;;;;26.08;12.98;;;11.20;95.90;;;;;;5040947;28;20099;-78
2021/03/04 11:24:13;;;;;;;24.17;12.70;;;10.60;96.30;;;;;;5024261;28;20195;-79
2021/03/04 11:26:39;;;;;;;27.33;14.00;;;10.50;96.80;;;;;;5040465;28;20028;-79
2021/03/04 11:29:09;;;;;;;27.63;13.52;;;10.50;98.00;;;;;;5041184;28;20087;-77
2021/03/04 11:31:36;;;;;;;30.15;14.00;;;10.50;98.20;;;;;;5039024;28;20055;-79
2021/03/04 11:34:02;;;;;;;28.98;14.10;;;10.40;98.10;;;;;;5042139;28;20698;-79
2021/03/04 11:36:29;;;;;;;29.08;13.13;;;10.40;97.50;;;;;;5039981;28;20690;-78
2021/03/04 11:38:55;;;;;;;27.67;13.98;;;10.40;97.80;;;;;;5043755;28;20101;-78
2021/03/04 11:41:21;;;;;;;27.92;14.50;;;10.40;98.50;;;;;;5042493;28;20041;-77
2021/03/04 11:43:47;;;;;;;26.92;14.98;;;10.40;98.60;;;;;;5040960;28;20064;-78
2021/03/04 11:46:13;;;;;;;28.73;14.57;;;10.50;99.20;;;;;;5053965;28;20064;-77
2021/03/04 11:48:42;;;;;;;28.05;14.73;;;10.50;98.80;;;;;;5038429;28;20073;-79
2021/03/04 11:51:08;;;;;;;34.17;15.98;;;10.80;99.00;;;;;;5043346;28;20075;-79
2021/03/04 11:53:33;;;;;;;31.45;15.98;;;10.50;99.00;;;;;;5040193;28;20127;-80
2021/03/04 11:55:59;;;;;;;32.38;15.38;;;10.50;98.60;;;;;;5037674;28;21814;-77
2021/03/04 11:58:26;;;;;;;46.72;20.33;;;10.60;99.80;;;;;;5041009;28;20072;-80
2021/03/04 12:00:52;;;;;;;30.67;14.93;;;11.10;97.90;;;;;;5042333;28;20513;-79
2021/03/04 12:03:19;;;;;;;28.85;15.52;;;11.10;98.10;;;;;;5042158;28;20052;-77
2021/03/04 12:05:45;;;;;;;30.20;15.40;;;11.10;98.60;;;;;;5040846;28;20155;-77
2021/03/04 12:08:10;;;;;;;27.23;14.02;;;11.10;98.20;;;;;;5041072;28;20059;-80
2021/03/04 12:10:37;;;;;;;27.50;14.43;;;11.30;98.00;;;;;;5037511;28;20048;-79
2021/03/04 12:13:03;;;;;;;24.17;14.15;;;11.20;98.20;;;;;;5040903;28;20065;-76
2021/03/04 12:15:29;;;;;;;30.42;15.15;;;11.20;98.40;;;;;;5039751;28;20033;-79
2021/03/04 12:17:55;;;;;;;31.48;14.85;;;11.20;98.30;;;;;;5042764;28;20051;-79
2021/03/04 12:20:20;;;;;;;27.05;14.60;;;11.20;98.50;;;;;;5043607;28;20041;-79
2021/03/04 12:22:46;;;;;;;24.33;14.82;;;11.00;98.80;;;;;;5039518;28;20100;-78
2021/03/04 12:25:12;;;;;;;27.88;15.18;;;11.00;99.00;;;;;;5041405;28;20055;-79
2021/03/04 12:27:38;;;;;;;30.05;15.68;;;11.20;98.80;;;;;;5037779;28;20049;-81
2021/03/04 12:30:04;;;;;;;26.45;15.93;;;11.10;98.70;;;;;;5034921;28;20036;-79
2021/03/04 12:32:30;;;;;;;28.20;14.43;;;11.00;99.10;;;;;;5051192;28;20041;-78
2021/03/04 12:34:56;;;;;;;26.80;14.32;;;11.00;99.70;;;;;;5039308;28;20036;-80
2021/03/04 12:37:22;;;;;;;27.58;14.27;;;11.10;98.40;;;;;;5041023;28;20065;-79
2021/03/04 12:39:48;;;;;;;30.05;15.48;;;11.10;98.60;;;;;;5035894;28;20049;-81
2021/03/04 12:42:14;;;;;;;26.17;14.10;;;11.20;98.70;;;;;;5018773;28;20033;-81